Santaquin, UT

1:23 AM MDT on August 28, 2014 (GMT -0600)
MesoWest Santaquin UT US FGNet | Change Station
CLOSE
Current Station
Personal Weather Station
Location: Santaquin, UT
Elevation: 4899 ft
Nearby Weather Stations

Elev 4899 ft 39.99 °N, 111.78 °W | Updated 23 minutes ago

Clear
Clear
57 °F
Feels Like 57 °F
N
4
Wind Variable Wind from South
Gusts 5.0 mph

Today
High -- | Low -- °F
--% Chance of Precip.
Yesterday
High -- | Low -- °F
Precip. -- in
6:51 AM 8:04 PM
Waxing Crescent, 7% visible
Pressure 30.25 in
Visibility 10.0 miles
Clouds Clear
Dew Point 48 °F
Humidity 72%
Rainfall -999.00 in
Snow Depth Not available.
UV 0 out of 12
Pollen 7.40 out of 12
Air Quality Not available.
Flu Activity Not available.
METAR KPVU 280715Z AUTO 10004KT 10SM CLR 13/09 A3025 RMK AO1

More Conditions Fewer Conditions

Pressure 30.25 in
Visibility 10.0 miles
Clouds Clear
Dew Point 48 °F
Humidity 72%
Rainfall -999.00 in
Snow Depth Not available.
UV 0 out of 12
Pollen 7.40 out of 12
Air Quality Not available.
Flu Activity Not available.
METAR KPVU 280715Z AUTO 10004KT 10SM CLR 13/09 A3025 RMK AO1

More Conditions Fewer Conditions

10-Day Weather Forecast

Almanac

Astronomy

Aug. 28, 2014 Rise Set
Actual Time 6:51 AM MDT 8:04 PM MDT
Civil Twilight 6:23 AM MDT 8:32 PM MDT
Nautical Twilight 5:49 AM MDT 9:06 PM MDT
Astronomical Twilight 5:14 AM MDT 9:41 PM MDT
Moon 9:47 AM MDT 9:30 PM MDT
Length of Visible Light 14h 09m
Length of Day
13h 13m
Tomorrow will be 2m 28s shorter.
Waxing Crescent, 7% of the Moon is Illuminated
Today
Waxing Crescent
Sep 2
First Quarter
Sep 8
Full
Sep 15
Last Quarter
Sep 24
New

Today's Extremes

State Highs State Lows

Community

WunderPhotos

Upload Photos

1,747,912 photos uploaded!

Nearby

Snow Depth

Station Depth Elevation
Payson R.S. 0 in 8050 ft
Cascade Mountain 1 in 7768 ft
Mammoth-Cottonwood 0 in 8800 ft
Strawberry Divide 0 in 8400 ft
Daniels-Strawberry 0 in 8000 ft

Earthquake Activity

City Distance Mag. Time & Date
No recent earthquake activity has been reported nearby.
Minimum magnitude displayed is 2.5.

Coastal Water Temperatures

Place Temperature
No Stations Reporting

Nearby Weather Stations